Time;durP1;ratioP1;P1;durP2;ratioP2;P2;SDS_P1;SDS_P2;PMS_P1;PMS_P2;Temp;Humidity;BMP_temperature;BMP_pressure;BME280_temperature;BME280_humidity;BME280_pressure;Samples;Min_cycle;Max_cycle;Signal;HPM_P1;HPM_P2
2022/01/04 00:00:29;;;;;;;1.50;1.23;;;9.40;99.90;;;;;;5041014;28;20555;-68
2022/01/04 00:02:56;;;;;;;1.40;1.30;;;9.40;99.90;;;;;;5046852;28;20485;-69
2022/01/04 00:05:23;;;;;;;1.10;0.80;;;9.30;99.90;;;;;;5043220;28;20553;-71
2022/01/04 00:07:51;;;;;;;1.57;1.00;;;9.30;99.90;;;;;;5042408;28;20433;-68
2022/01/04 00:10:21;;;;;;;1.00;0.70;;;9.30;99.90;;;;;;5051430;28;20532;-70
2022/01/04 00:15:37;;;;;;;1.30;1.10;;;9.40;99.90;;;;;;5030507;28;20451;-71
2022/01/04 00:18:05;;;;;;;1.10;1.00;;;9.30;99.90;;;;;;5048581;28;20478;-71
2022/01/04 00:20:32;;;;;;;8.03;1.70;;;9.30;99.90;;;;;;5046244;28;20533;-69
2022/01/04 00:22:59;;;;;;;1.00;0.80;;;9.30;99.90;;;;;;5032424;28;20639;-71
2022/01/04 00:25:26;;;;;;;2.37;1.20;;;9.20;99.90;;;;;;5039867;28;20437;-67
2022/01/04 00:27:54;;;;;;;1.30;0.80;;;9.30;99.90;;;;;;5030692;28;20462;-70
2022/01/04 00:30:21;;;;;;;6.13;1.10;;;9.30;99.90;;;;;;5037351;28;20498;-70
2022/01/04 00:32:49;;;;;;;2.50;1.40;;;9.30;99.90;;;;;;5024242;28;22541;-70
2022/01/04 00:35:17;;;;;;;1.80;1.10;;;9.40;99.90;;;;;;5026898;28;20582;-68
2022/01/04 00:37:44;;;;;;;0.90;0.70;;;9.50;99.90;;;;;;5038761;28;20469;-70
2022/01/04 00:40:11;;;;;;;2.10;1.30;;;9.40;99.90;;;;;;5040535;28;20459;-72
2022/01/04 00:42:38;;;;;;;4.60;1.30;;;9.30;99.90;;;;;;5051651;28;20580;-71
2022/01/04 00:45:06;;;;;;;1.17;1.03;;;9.20;99.90;;;;;;5047756;28;20467;-68
2022/01/04 00:47:44;;;;;;;1.30;1.20;;;9.20;99.90;;;;;;5047577;28;20541;-71
2022/01/04 00:50:14;;;;;;;2.67;1.30;;;9.20;99.90;;;;;;5041658;28;20465;-71
2022/01/04 00:52:41;;;;;;;2.17;0.90;;;9.30;99.90;;;;;;5054712;28;20840;-71
2022/01/04 00:55:09;;;;;;;1.60;0.90;;;9.30;99.90;;;;;;5050639;28;20455;-67
2022/01/04 00:57:36;;;;;;;3.23;1.10;;;9.20;99.90;;;;;;5034619;28;20462;-68
2022/01/04 01:00:04;;;;;;;6.20;1.00;;;9.20;99.90;;;;;;5022795;28;20985;-70
2022/01/04 01:02:31;;;;;;;2.63;1.73;;;9.30;99.90;;;;;;5041512;28;20536;-68
2022/01/04 01:04:58;;;;;;;1.20;0.90;;;9.30;99.90;;;;;;5046258;28;22500;-69
2022/01/04 01:07:26;;;;;;;1.77;1.10;;;9.20;99.90;;;;;;5048291;28;20555;-70
2022/01/04 01:10:05;;;;;;;1.37;1.00;;;9.10;99.90;;;;;;5055225;28;21219;-68
2022/01/04 01:12:32;;;;;;;5.77;1.63;;;9.10;99.90;;;;;;5057649;28;20499;-68
2022/01/04 01:14:59;;;;;;;4.73;0.90;;;9.20;99.90;;;;;;5036800;28;21167;-67
2022/01/04 01:17:26;;;;;;;4.23;1.27;;;9.10;99.90;;;;;;5048473;28;20664;-70
2022/01/04 01:19:53;;;;;;;1.87;1.20;;;9.10;99.90;;;;;;5044240;28;20586;-69
2022/01/04 01:22:20;;;;;;;2.17;0.90;;;9.00;99.90;;;;;;5049585;28;20566;-68
2022/01/04 01:24:49;;;;;;;4.70;1.87;;;9.00;99.90;;;;;;5048480;28;20590;-70
2022/01/04 01:27:16;;;;;;;2.47;2.07;;;9.00;99.90;;;;;;5040253;28;20486;-70
2022/01/04 01:29:43;;;;;;;1.93;1.30;;;9.00;99.90;;;;;;5042324;28;20565;-70
2022/01/04 01:32:10;;;;;;;1.10;1.00;;;9.00;99.90;;;;;;5045764;28;20434;-69
2022/01/04 01:34:37;;;;;;;3.47;1.60;;;9.00;99.90;;;;;;5052750;28;20545;-69
2022/01/04 01:37:05;;;;;;;1.60;1.10;;;9.00;99.90;;;;;;5039025;28;21446;-68
2022/01/04 01:39:32;;;;;;;1.83;1.10;;;8.90;99.90;;;;;;5055584;28;20469;-70
2022/01/04 01:42:00;;;;;;;1.37;1.27;;;8.90;99.90;;;;;;5044893;28;20562;-71
2022/01/04 01:44:28;;;;;;;2.73;2.00;;;8.80;99.90;;;;;;5045652;28;20498;-70
2022/01/04 01:46:55;;;;;;;1.53;1.30;;;8.90;99.90;;;;;;5045112;28;20494;-70
2022/01/04 01:49:22;;;;;;;3.50;2.10;;;8.90;99.90;;;;;;5046118;28;20553;-69
2022/01/04 01:51:49;;;;;;;1.17;1.00;;;8.90;99.90;;;;;;5053591;28;20551;-70
2022/01/04 01:54:17;;;;;;;3.57;1.97;;;8.90;99.90;;;;;;5041572;28;20521;-69
2022/01/04 01:56:44;;;;;;;7.23;3.87;;;8.90;99.90;;;;;;5034496;28;20491;-70
2022/01/04 01:59:14;;;;;;;1.60;1.30;;;8.90;99.90;;;;;;5048336;28;20569;-68
2022/01/04 02:01:41;;;;;;;1.87;1.13;;;9.00;99.90;;;;;;5047965;28;20450;-68
2022/01/04 02:04:09;;;;;;;1.20;1.00;;;8.90;99.90;;;;;;5031954;28;21078;-69
2022/01/04 02:06:36;;;;;;;2.10;1.40;;;8.90;99.90;;;;;;5037725;28;20461;-68
2022/01/04 02:09:04;;;;;;;2.40;1.70;;;8.90;99.90;;;;;;5027926;28;20505;-70
2022/01/04 02:11:32;;;;;;;2.77;1.80;;;9.00;99.90;;;;;;5040429;28;20970;-67
2022/01/04 02:13:59;;;;;;;2.33;2.13;;;8.90;99.90;;;;;;5042796;28;21038;-71
2022/01/04 02:16:29;;;;;;;1.63;1.53;;;8.90;99.90;;;;;;5029744;28;20629;-69
2022/01/04 02:19:00;;;;;;;2.07;1.67;;;8.90;99.90;;;;;;5033248;28;20635;-69
2022/01/04 02:21:28;;;;;;;3.97;1.93;;;9.00;99.90;;;;;;5034378;28;20490;-70
2022/01/04 02:23:55;;;;;;;1.53;1.00;;;9.00;99.90;;;;;;5038450;28;21408;-70
2022/01/04 02:26:23;;;;;;;2.03;1.50;;;8.90;99.90;;;;;;5028416;28;20470;-70
2022/01/04 02:28:52;;;;;;;2.40;1.67;;;8.80;99.90;;;;;;5029842;28;20481;-69
2022/01/04 02:31:19;;;;;;;1.83;1.23;;;8.80;99.90;;;;;;5036454;28;20837;-70
2022/01/04 02:33:46;;;;;;;1.83;1.63;;;8.80;99.90;;;;;;5033073;28;20517;-70
2022/01/04 02:36:13;;;;;;;1.67;1.37;;;8.80;99.90;;;;;;5039633;28;20459;-69
2022/01/04 02:38:42;;;;;;;3.73;1.23;;;8.80;99.90;;;;;;5036659;28;20514;-71
2022/01/04 02:41:09;;;;;;;3.40;1.63;;;8.80;99.90;;;;;;5042786;28;20469;-71
2022/01/04 02:43:37;;;;;;;1.67;1.57;;;8.80;99.90;;;;;;5042223;28;20609;-69
2022/01/04 02:46:04;;;;;;;3.27;1.50;;;8.80;99.90;;;;;;5038806;28;20491;-67
2022/01/04 02:48:31;;;;;;;2.40;1.37;;;8.80;99.90;;;;;;5046040;28;20532;-69
2022/01/04 02:50:58;;;;;;;2.40;1.27;;;8.90;99.90;;;;;;5042885;28;20961;-71
2022/01/04 02:53:25;;;;;;;3.63;1.87;;;8.90;99.90;;;;;;5042233;28;20464;-69
2022/01/04 02:55:53;;;;;;;1.73;1.40;;;8.90;99.90;;;;;;5039683;28;20559;-70
2022/01/04 02:58:20;;;;;;;2.70;1.50;;;8.90;99.90;;;;;;5042620;28;20518;-69
2022/01/04 03:00:47;;;;;;;1.87;1.63;;;8.80;99.90;;;;;;5027742;28;20505;-69
2022/01/04 03:03:14;;;;;;;2.10;1.90;;;8.80;99.90;;;;;;5039130;28;20516;-70
2022/01/04 03:05:41;;;;;;;2.33;2.00;;;8.80;99.90;;;;;;5048777;28;20441;-71
2022/01/04 03:08:11;;;;;;;1.63;1.33;;;8.80;99.90;;;;;;5033485;28;20878;-70
2022/01/04 03:10:38;;;;;;;1.70;1.60;;;8.80;99.90;;;;;;5036583;28;20518;-68
2022/01/04 03:13:07;;;;;;;1.90;1.20;;;8.70;99.90;;;;;;5047447;28;20538;-71
2022/01/04 03:15:34;;;;;;;3.90;1.77;;;8.80;99.90;;;;;;5041198;28;20532;-68
2022/01/04 03:18:01;;;;;;;1.70;1.37;;;8.70;99.90;;;;;;5036441;28;20457;-71
2022/01/04 03:20:28;;;;;;;6.87;1.30;;;8.70;99.90;;;;;;5049553;28;20516;-71
2022/01/04 03:22:55;;;;;;;1.50;1.40;;;8.70;99.90;;;;;;5045948;28;20560;-70
2022/01/04 03:25:22;;;;;;;2.40;1.13;;;8.70;99.90;;;;;;5041533;28;21784;-68
2022/01/04 03:27:49;;;;;;;1.50;1.30;;;8.70;99.90;;;;;;5041727;28;20457;-68
2022/01/04 03:30:18;;;;;;;1.97;1.37;;;8.60;99.90;;;;;;5046970;28;20464;-71
2022/01/04 03:32:45;;;;;;;2.10;1.90;;;8.70;99.90;;;;;;5041111;28;20477;-71
2022/01/04 03:35:12;;;;;;;3.00;2.33;;;8.70;99.90;;;;;;5034086;28;20444;-70
2022/01/04 03:37:39;;;;;;;1.77;1.30;;;8.60;99.90;;;;;;5039000;28;20558;-70
2022/01/04 03:40:07;;;;;;;2.03;1.43;;;8.60;99.90;;;;;;5051524;28;20547;-70
2022/01/04 03:42:34;;;;;;;3.77;1.73;;;8.60;99.90;;;;;;5041784;28;20433;-70
2022/01/04 03:45:01;;;;;;;2.50;2.03;;;8.60;99.90;;;;;;5042736;28;20583;-71
2022/01/04 03:47:30;;;;;;;1.33;1.23;;;8.60;99.90;;;;;;5033575;28;20543;-68
2022/01/04 03:49:57;;;;;;;3.03;2.20;;;8.50;99.90;;;;;;5039171;28;20478;-70
2022/01/04 03:52:24;;;;;;;9.70;1.77;;;8.60;99.90;;;;;;5025628;28;21161;-69
2022/01/04 03:54:51;;;;;;;2.70;1.57;;;8.60;99.90;;;;;;5047417;28;20796;-71
2022/01/04 03:57:18;;;;;;;2.53;1.20;;;8.60;99.90;;;;;;5024854;28;20555;-68
2022/01/04 03:59:45;;;;;;;3.23;1.80;;;8.60;99.90;;;;;;5016306;28;20588;-68
2022/01/04 04:02:21;;;;;;;6.43;2.23;;;8.60;99.90;;;;;;5030818;28;21262;-71
2022/01/04 04:04:50;;;;;;;2.13;1.60;;;8.60;99.90;;;;;;5026362;28;20458;-71
2022/01/04 04:07:16;;;;;;;2.40;1.80;;;8.70;99.90;;;;;;5038066;28;20463;-69
2022/01/04 04:09:43;;;;;;;2.57;2.03;;;8.80;99.90;;;;;;5046471;28;21614;-70
2022/01/04 04:12:14;;;;;;;2.30;1.50;;;8.80;99.90;;;;;;5035064;28;20441;-70
2022/01/04 04:14:42;;;;;;;2.70;1.87;;;8.80;99.90;;;;;;5039010;28;20596;-70
2022/01/04 04:17:09;;;;;;;4.67;1.77;;;8.80;99.90;;;;;;5034396;28;20571;-69
2022/01/04 04:19:36;;;;;;;2.03;1.80;;;8.70;99.90;;;;;;5042702;28;20568;-70
2022/01/04 04:22:05;;;;;;;2.53;1.67;;;8.70;99.90;;;;;;5046539;28;20433;-70
2022/01/04 04:24:32;;;;;;;2.07;1.33;;;8.70;99.90;;;;;;5037954;28;20558;-69
2022/01/04 04:26:59;;;;;;;3.17;1.70;;;8.70;99.90;;;;;;5026514;28;20508;-70
2022/01/04 04:29:26;;;;;;;4.20;3.43;;;8.70;99.90;;;;;;5040557;28;20561;-70
2022/01/04 04:31:53;;;;;;;2.37;1.70;;;8.70;99.90;;;;;;5044419;28;20788;-70
2022/01/04 04:34:20;;;;;;;4.23;2.50;;;8.70;99.90;;;;;;5041634;28;20958;-69
2022/01/04 04:36:47;;;;;;;3.37;2.10;;;8.80;99.90;;;;;;5039111;28;20494;-69
2022/01/04 04:39:18;;;;;;;3.43;2.10;;;8.80;99.90;;;;;;5043876;28;20796;-69
2022/01/04 04:41:49;;;;;;;3.77;2.07;;;8.70;99.90;;;;;;5047218;28;20552;-67
2022/01/04 04:44:17;;;;;;;2.60;2.40;;;8.80;99.90;;;;;;5044788;28;21003;-70
2022/01/04 04:46:44;;;;;;;1.77;1.50;;;8.80;99.90;;;;;;5035937;28;20461;-67
2022/01/04 04:49:11;;;;;;;2.80;2.40;;;8.80;99.90;;;;;;5047028;28;20934;-69
2022/01/04 04:51:39;;;;;;;4.00;1.90;;;8.90;99.90;;;;;;5026217;28;21757;-69
2022/01/04 04:54:06;;;;;;;2.27;1.43;;;8.90;99.90;;;;;;5044743;28;20450;-70
2022/01/04 04:56:38;;;;;;;4.00;2.77;;;8.90;99.90;;;;;;5035879;28;20514;-68
2022/01/04 04:59:05;;;;;;;1.53;1.43;;;8.80;99.90;;;;;;5024824;28;26355;-70
2022/01/04 05:01:34;;;;;;;2.77;2.57;;;8.80;99.90;;;;;;5035550;28;21041;-70
2022/01/04 05:04:02;;;;;;;2.93;2.63;;;8.80;99.90;;;;;;5037115;28;21462;-70
2022/01/04 05:06:29;;;;;;;3.83;2.30;;;8.70;99.90;;;;;;5038871;28;20459;-69
2022/01/04 05:08:56;;;;;;;4.10;2.67;;;8.70;99.90;;;;;;5032043;28;20603;-70
2022/01/04 05:11:23;;;;;;;1.70;1.60;;;8.60;99.90;;;;;;5032845;28;20490;-70
2022/01/04 05:13:52;;;;;;;3.07;2.10;;;8.60;99.90;;;;;;5036268;28;20486;-69
2022/01/04 05:16:19;;;;;;;4.60;2.43;;;8.60;99.90;;;;;;5032133;28;20499;-68
2022/01/04 05:18:46;;;;;;;1.80;1.30;;;8.80;99.90;;;;;;5030657;28;20522;-71
2022/01/04 05:21:13;;;;;;;12.53;3.37;;;8.70;99.90;;;;;;5042258;28;21178;-70
2022/01/04 05:23:40;;;;;;;1.63;1.43;;;8.70;99.90;;;;;;5044062;28;20824;-69
2022/01/04 05:26:10;;;;;;;3.33;1.47;;;8.80;99.90;;;;;;5038688;28;20511;-70
2022/01/04 05:28:38;;;;;;;2.83;2.33;;;8.70;99.90;;;;;;5039387;28;20461;-69
2022/01/04 05:31:07;;;;;;;5.87;2.30;;;8.80;99.90;;;;;;5039582;28;20536;-67
2022/01/04 05:33:34;;;;;;;2.27;1.73;;;8.80;99.90;;;;;;5036323;28;20433;-69
2022/01/04 05:36:01;;;;;;;2.37;1.30;;;8.70;99.90;;;;;;5027904;28;20513;-70
2022/01/04 05:38:28;;;;;;;12.13;2.13;;;8.60;99.90;;;;;;5031670;28;20538;-69
2022/01/04 05:40:55;;;;;;;2.50;1.97;;;8.60;99.90;;;;;;5031525;28;21445;-68
2022/01/04 05:43:22;;;;;;;2.43;1.50;;;8.60;99.90;;;;;;5043948;28;20556;-69
2022/01/04 05:45:49;;;;;;;10.90;2.53;;;8.70;99.90;;;;;;5028907;28;20495;-69
2022/01/04 05:48:20;;;;;;;3.10;1.80;;;8.70;99.90;;;;;;5018861;28;20555;-70
2022/01/04 05:50:52;;;;;;;4.07;2.30;;;8.60;99.90;;;;;;5021797;28;21166;-68
2022/01/04 05:53:19;;;;;;;5.30;2.80;;;8.70;99.90;;;;;;5032829;28;20836;-69
2022/01/04 05:55:47;;;;;;;2.80;2.50;;;8.60;99.90;;;;;;5027374;28;20581;-70
2022/01/04 05:58:14;;;;;;;2.43;2.20;;;8.70;99.90;;;;;;5036960;28;20888;-70
2022/01/04 06:00:41;;;;;;;2.23;1.30;;;8.80;99.90;;;;;;5028416;28;20532;-71
2022/01/04 06:03:08;;;;;;;7.03;2.90;;;8.70;99.90;;;;;;5036680;28;20438;-70
2022/01/04 06:05:37;;;;;;;2.03;1.80;;;8.70;99.90;;;;;;5034164;28;20616;-68
2022/01/04 06:08:05;;;;;;;2.27;2.07;;;8.70;99.90;;;;;;5037910;28;20462;-67
2022/01/04 06:10:38;;;;;;;2.20;1.80;;;8.60;99.90;;;;;;5020195;28;20441;-71
2022/01/04 06:15:50;;;;;;;5.27;2.57;;;8.60;99.90;;;;;;5030828;28;20454;-71
2022/01/04 06:18:16;;;;;;;3.87;2.20;;;8.70;99.90;;;;;;5045675;28;20633;-71
2022/01/04 06:20:45;;;;;;;2.87;2.57;;;8.60;99.90;;;;;;5033633;28;20429;-70
2022/01/04 06:23:12;;;;;;;2.37;1.80;;;8.60;99.90;;;;;;5016538;28;20468;-71
2022/01/04 06:25:39;;;;;;;2.30;2.10;;;8.60;99.90;;;;;;5024806;28;20485;-71
2022/01/04 06:28:06;;;;;;;5.90;1.57;;;8.60;99.90;;;;;;5016290;28;20482;-68
2022/01/04 06:30:34;;;;;;;3.97;2.10;;;8.70;99.90;;;;;;4994369;28;20520;-69
2022/01/04 06:33:01;;;;;;;4.53;2.17;;;8.70;99.90;;;;;;5002189;28;20437;-68
2022/01/04 06:35:29;;;;;;;5.50;2.90;;;8.70;99.90;;;;;;5003908;28;20451;-70
2022/01/04 06:38:00;;;;;;;4.70;2.20;;;8.60;99.90;;;;;;5027162;28;20809;-71
2022/01/04 06:40:28;;;;;;;5.53;3.70;;;8.60;99.90;;;;;;5036373;28;20540;-72
2022/01/04 06:42:55;;;;;;;4.03;2.40;;;8.50;99.90;;;;;;5035525;28;20466;-69
2022/01/04 06:45:22;;;;;;;1.80;1.70;;;8.50;99.90;;;;;;5034838;28;20937;-71
2022/01/04 06:47:57;;;;;;;3.63;2.03;;;8.50;99.90;;;;;;5039831;28;20658;-68
2022/01/04 06:50:24;;;;;;;9.40;4.27;;;8.50;99.90;;;;;;5030453;28;20435;-70
2022/01/04 06:52:54;;;;;;;4.90;3.03;;;8.60;99.90;;;;;;4998298;28;21019;-68
2022/01/04 06:55:23;;;;;;;5.77;4.10;;;8.60;99.90;;;;;;5014206;28;20516;-69
2022/01/04 06:57:50;;;;;;;4.83;2.30;;;8.60;99.90;;;;;;5012994;28;21001;-70
2022/01/04 07:00:20;;;;;;;5.17;3.00;;;8.70;99.90;;;;;;5028150;28;20445;-69
2022/01/04 07:02:47;;;;;;;4.10;3.70;;;8.60;99.90;;;;;;5018815;28;20446;-70
2022/01/04 07:05:14;;;;;;;3.43;2.40;;;8.60;99.90;;;;;;5040148;28;20979;-68
2022/01/04 07:07:41;;;;;;;4.03;2.70;;;8.70;99.90;;;;;;5010781;28;20462;-69
2022/01/04 07:10:12;;;;;;;7.80;2.90;;;8.70;99.90;;;;;;5043410;28;21033;-70
2022/01/04 07:12:40;;;;;;;4.03;2.57;;;8.70;99.90;;;;;;5026898;28;24652;-67
2022/01/04 07:15:09;;;;;;;6.30;3.13;;;8.70;99.90;;;;;;4995035;28;20454;-69
2022/01/04 07:17:39;;;;;;;5.47;3.37;;;8.80;99.90;;;;;;5037949;28;20957;-68
2022/01/04 07:20:07;;;;;;;3.60;2.90;;;8.80;99.90;;;;;;5024118;28;20479;-71
2022/01/04 07:22:35;;;;;;;4.73;3.00;;;8.90;99.90;;;;;;5020624;28;20444;-71
2022/01/04 07:25:03;;;;;;;3.90;2.43;;;8.70;99.90;;;;;;5040332;28;20461;-71
2022/01/04 07:27:30;;;;;;;11.53;3.80;;;8.60;99.90;;;;;;5020420;28;20512;-70
2022/01/04 07:29:58;;;;;;;7.63;3.23;;;8.50;99.90;;;;;;5012756;28;20549;-68
2022/01/04 07:32:25;;;;;;;5.03;3.27;;;8.50;99.90;;;;;;5036286;28;20461;-68
2022/01/04 07:34:52;;;;;;;4.33;2.80;;;8.60;99.90;;;;;;5011442;28;21010;-70
2022/01/04 07:37:19;;;;;;;3.00;2.77;;;8.70;99.90;;;;;;5033728;28;20499;-68
2022/01/04 07:39:46;;;;;;;6.03;3.10;;;8.70;99.90;;;;;;5033886;28;20548;-68
2022/01/04 07:42:13;;;;;;;7.80;3.80;;;8.60;99.90;;;;;;5010437;28;20576;-68
2022/01/04 07:44:41;;;;;;;12.37;4.80;;;8.70;99.90;;;;;;5035419;28;20508;-70
2022/01/04 07:47:09;;;;;;;9.17;5.30;;;8.60;99.90;;;;;;4996636;28;21690;-70
2022/01/04 07:49:36;;;;;;;14.63;5.47;;;8.80;99.90;;;;;;5026598;28;20553;-70
2022/01/04 07:52:04;;;;;;;15.30;5.47;;;8.60;99.90;;;;;;5052336;28;20437;-70
2022/01/04 07:54:31;;;;;;;10.00;4.60;;;8.60;99.90;;;;;;5045671;28;20457;-70
2022/01/04 07:56:58;;;;;;;4.50;3.90;;;8.60;99.90;;;;;;5045345;28;20465;-69
2022/01/04 07:59:28;;;;;;;8.60;4.83;;;8.60;99.90;;;;;;5049385;28;20483;-68
2022/01/04 08:01:55;;;;;;;5.27;3.20;;;8.70;99.90;;;;;;5053027;28;20454;-70
2022/01/04 08:04:23;;;;;;;3.87;2.43;;;8.50;99.90;;;;;;5050356;28;20806;-70
2022/01/04 08:06:50;;;;;;;5.77;3.20;;;8.60;99.90;;;;;;5054200;28;20792;-70
2022/01/04 08:09:17;;;;;;;3.77;2.43;;;8.70;99.90;;;;;;5048327;28;20548;-71
2022/01/04 08:11:44;;;;;;;6.87;2.37;;;8.60;99.90;;;;;;5048462;28;20470;-70
2022/01/04 08:14:11;;;;;;;6.83;3.50;;;8.60;99.90;;;;;;5060951;28;20486;-70
2022/01/04 08:16:38;;;;;;;7.27;3.93;;;8.70;99.90;;;;;;5046096;28;20459;-67
2022/01/04 08:19:05;;;;;;;4.20;3.00;;;8.60;99.90;;;;;;5047933;28;20657;-68
2022/01/04 08:21:34;;;;;;;6.67;3.40;;;8.60;99.90;;;;;;5036311;28;20857;-69
2022/01/04 08:24:01;;;;;;;8.00;3.53;;;8.70;99.90;;;;;;5036683;28;20470;-68
2022/01/04 08:26:28;;;;;;;7.03;2.87;;;8.70;99.90;;;;;;5042018;28;20538;-71
2022/01/04 08:28:56;;;;;;;6.63;4.40;;;8.80;99.90;;;;;;5031673;28;20457;-69
2022/01/04 08:31:23;;;;;;;14.03;4.07;;;8.80;99.90;;;;;;5048817;28;20541;-71
2022/01/04 08:33:50;;;;;;;7.70;4.23;;;8.80;99.90;;;;;;5036041;28;20845;-68
2022/01/04 08:36:17;;;;;;;6.10;3.23;;;8.80;99.90;;;;;;5034967;28;20593;-70
2022/01/04 08:38:45;;;;;;;8.13;3.90;;;8.70;99.90;;;;;;5036623;28;20932;-70
2022/01/04 08:41:15;;;;;;;3.47;3.17;;;8.80;99.90;;;;;;5054335;28;20453;-70
2022/01/04 08:43:42;;;;;;;5.23;4.40;;;8.70;99.90;;;;;;5043808;28;20440;-67
2022/01/04 08:46:09;;;;;;;6.60;2.70;;;8.70;99.90;;;;;;5039176;28;20600;-71
2022/01/04 08:48:36;;;;;;;5.73;2.90;;;8.70;99.90;;;;;;5043435;28;20788;-71
2022/01/04 08:51:04;;;;;;;7.03;3.10;;;8.70;99.90;;;;;;5044670;28;20461;-68
2022/01/04 08:53:32;;;;;;;4.83;2.70;;;8.80;99.90;;;;;;5038753;28;20527;-70
2022/01/04 08:56:02;;;;;;;6.40;3.77;;;8.80;99.90;;;;;;5025780;28;20576;-71
2022/01/04 08:58:32;;;;;;;11.53;4.33;;;8.80;99.90;;;;;;5032848;28;20475;-71
2022/01/04 09:00:59;;;;;;;4.67;2.87;;;8.80;99.90;;;;;;5043660;28;21142;-70
2022/01/04 09:03:26;;;;;;;5.70;3.67;;;8.80;99.90;;;;;;5044345;28;20952;-71
2022/01/04 09:05:54;;;;;;;7.77;4.30;;;8.80;99.90;;;;;;5047406;28;20461;-67
2022/01/04 09:08:24;;;;;;;7.67;4.37;;;8.80;99.90;;;;;;5031478;28;20457;-69
2022/01/04 09:10:51;;;;;;;6.17;4.10;;;8.80;99.90;;;;;;5053475;28;20516;-71
2022/01/04 09:13:21;;;;;;;4.23;2.23;;;8.80;99.90;;;;;;5018456;28;20467;-69
2022/01/04 09:18:43;;;;;;;10.23;4.20;;;8.80;99.90;;;;;;4998765;28;20626;-67
2022/01/04 09:18:45;;;;;;;12.13;5.60;;;8.70;99.90;;;;;;4999625;28;20492;-67
2022/01/04 09:21:14;;;;;;;6.00;3.77;;;8.70;99.90;;;;;;4996117;28;20566;-71
2022/01/04 09:23:42;;;;;;;12.20;4.40;;;8.70;99.90;;;;;;5001383;28;20463;-68
2022/01/04 09:26:09;;;;;;;4.50;3.00;;;8.70;99.90;;;;;;5016252;28;20480;-69
2022/01/04 09:28:40;;;;;;;9.13;4.00;;;8.60;99.90;;;;;;5032191;28;20536;-68
2022/01/04 09:31:07;;;;;;;6.03;3.40;;;8.60;99.90;;;;;;5027512;28;20493;-70
2022/01/04 09:33:35;;;;;;;8.80;4.67;;;8.60;99.90;;;;;;5033398;28;20436;-69
2022/01/04 09:36:02;;;;;;;10.03;4.50;;;8.60;99.90;;;;;;5056993;28;20533;-70
2022/01/04 09:38:29;;;;;;;6.40;3.97;;;8.60;99.90;;;;;;5060973;28;20573;-70
2022/01/04 09:40:57;;;;;;;10.87;4.87;;;8.70;99.90;;;;;;5060088;28;20455;-69
2022/01/04 09:43:25;;;;;;;10.57;4.33;;;8.70;99.90;;;;;;5062152;28;20883;-71
2022/01/04 09:45:54;;;;;;;2.27;1.90;;;8.80;99.90;;;;;;5051717;28;20449;-69
2022/01/04 09:48:21;;;;;;;11.90;4.30;;;8.90;99.90;;;;;;5058822;28;20553;-70
2022/01/04 09:50:49;;;;;;;8.57;3.97;;;8.80;99.90;;;;;;5059845;28;20539;-69
2022/01/04 09:53:20;;;;;;;16.50;4.27;;;8.80;99.90;;;;;;5058869;28;20466;-70
2022/01/04 09:55:49;;;;;;;5.10;3.73;;;8.80;99.90;;;;;;5054026;28;21125;-67
2022/01/04 09:58:19;;;;;;;8.33;4.00;;;8.80;99.90;;;;;;5063822;22;20543;-71
2022/01/04 10:00:47;;;;;;;8.63;4.03;;;8.80;99.90;;;;;;5042411;28;20468;-71
2022/01/04 10:03:18;;;;;;;5.23;4.30;;;8.70;99.90;;;;;;5055879;28;20462;-69
2022/01/04 10:05:46;;;;;;;4.63;3.57;;;8.80;99.90;;;;;;5049259;28;20786;-70
2022/01/04 10:08:14;;;;;;;6.73;3.50;;;8.80;99.90;;;;;;5057537;28;20456;-69
2022/01/04 10:10:43;;;;;;;3.60;2.43;;;8.80;99.90;;;;;;5048370;28;20563;-70
2022/01/04 10:13:12;;;;;;;5.60;2.70;;;8.80;99.90;;;;;;5056489;28;20587;-68
2022/01/04 10:15:41;;;;;;;4.67;2.50;;;8.80;99.90;;;;;;5054514;28;20478;-68
2022/01/04 10:18:23;;;;;;;6.67;3.67;;;8.80;99.90;;;;;;5051479;28;20477;-71
2022/01/04 10:20:53;;;;;;;6.63;3.53;;;8.80;99.90;;;;;;5055906;28;20466;-70
2022/01/04 10:23:22;;;;;;;4.63;2.83;;;8.80;99.90;;;;;;5055425;28;21119;-70
2022/01/04 10:25:50;;;;;;;5.83;3.10;;;8.80;99.90;;;;;;5048041;28;20745;-70
2022/01/04 10:28:32;;;;;;;6.50;3.13;;;8.80;99.90;;;;;;5058910;28;20492;-70
2022/01/04 10:31:01;;;;;;;6.47;4.23;;;8.70;99.90;;;;;;5056002;28;20469;-71
2022/01/04 10:33:31;;;;;;;4.50;3.30;;;8.80;99.90;;;;;;5058138;28;20956;-71
2022/01/04 10:36:00;;;;;;;3.27;2.97;;;8.90;99.90;;;;;;5051188;28;20504;-73
2022/01/04 10:38:29;;;;;;;2.90;1.93;;;8.80;99.90;;;;;;5056618;28;20475;-72
2022/01/04 10:41:00;;;;;;;5.73;3.70;;;8.70;99.90;;;;;;5048076;28;20530;-70
2022/01/04 10:43:29;;;;;;;6.53;2.80;;;8.70;99.90;;;;;;5054356;28;20795;-72
2022/01/04 10:45:58;;;;;;;10.10;3.50;;;8.70;99.90;;;;;;5055345;28;20569;-71
2022/01/04 10:48:27;;;;;;;6.13;4.17;;;8.80;99.90;;;;;;5057873;28;20505;-71
2022/01/04 10:50:58;;;;;;;6.97;4.30;;;8.90;99.90;;;;;;5055226;28;20524;-69
2022/01/04 10:53:29;;;;;;;2.57;1.40;;;9.00;99.90;;;;;;5056118;28;20432;-70
2022/01/04 10:56:01;;;;;;;8.20;4.00;;;9.00;99.90;;;;;;5051142;28;20547;-71
2022/01/04 10:58:31;;;;;;;9.13;4.53;;;8.80;99.90;;;;;;5052998;28;20472;-70
2022/01/04 11:01:01;;;;;;;6.73;4.13;;;8.80;99.90;;;;;;5060412;28;20455;-70
2022/01/04 11:03:31;;;;;;;6.87;4.30;;;8.90;99.90;;;;;;5058614;28;20536;-71
2022/01/04 11:06:08;;;;;;;5.10;2.40;;;8.90;99.90;;;;;;5050089;28;20486;-71
2022/01/04 11:08:36;;;;;;;8.20;4.13;;;8.80;99.90;;;;;;5055304;28;20974;-69
2022/01/04 11:11:04;;;;;;;14.03;4.93;;;8.70;99.90;;;;;;5052951;28;20556;-70
2022/01/04 11:13:31;;;;;;;6.80;4.93;;;8.80;99.90;;;;;;5056315;28;20463;-72
2022/01/04 11:16:00;;;;;;;7.57;4.50;;;8.80;99.90;;;;;;5048690;28;20454;-70
2022/01/04 11:18:28;;;;;;;7.43;5.30;;;8.80;99.90;;;;;;5056947;28;20490;-70
2022/01/04 11:20:56;;;;;;;8.10;5.23;;;8.90;99.90;;;;;;5060789;28;20537;-70
2022/01/04 11:23:29;;;;;;;10.80;5.80;;;8.90;99.90;;;;;;5038452;28;20463;-71
2022/01/04 11:25:58;;;;;;;7.90;5.63;;;8.90;99.90;;;;;;5013861;28;20478;-71
2022/01/04 11:28:28;;;;;;;11.97;6.20;;;8.80;99.90;;;;;;4993723;28;20482;-70
2022/01/04 11:31:13;;;;;;;9.67;4.70;;;8.80;99.90;;;;;;5023981;28;20609;-69
2022/01/04 11:33:51;;;;;;;10.57;5.27;;;8.90;99.90;;;;;;5039931;28;20477;-73
2022/01/04 11:36:20;;;;;;;7.10;3.80;;;8.90;99.90;;;;;;5038711;28;21238;-72
2022/01/04 11:38:49;;;;;;;9.90;6.47;;;8.80;99.90;;;;;;5008623;28;20903;-71
2022/01/04 11:41:26;;;;;;;5.20;4.30;;;8.80;99.90;;;;;;5046406;28;20429;-70
2022/01/04 11:43:53;;;;;;;10.40;4.30;;;8.90;99.90;;;;;;5042361;28;20798;-69
2022/01/04 11:46:36;;;;;;;10.70;6.37;;;8.90;99.90;;;;;;5034787;28;21129;-70
2022/01/04 11:49:12;;;;;;;14.20;7.50;;;8.90;99.90;;;;;;5028468;28;20523;-71
2022/01/04 11:51:43;;;;;;;9.60;6.07;;;9.00;99.90;;;;;;5045990;28;20458;-70
2022/01/04 11:54:21;;;;;;;12.53;4.73;;;8.90;99.90;;;;;;5047037;28;20509;-71
2022/01/04 11:56:50;;;;;;;11.00;6.27;;;9.00;99.90;;;;;;5030363;28;20928;-70
2022/01/04 11:59:23;;;;;;;11.20;7.13;;;8.90;99.90;;;;;;5032902;28;20501;-69
2022/01/04 12:01:51;;;;;;;15.27;6.73;;;8.80;99.90;;;;;;5042724;28;20451;-72
2022/01/04 12:04:51;;;;;;;11.33;5.80;;;8.80;99.90;;;;;;5022576;28;21346;-72
2022/01/04 12:07:44;;;;;;;12.00;6.63;;;8.90;99.90;;;;;;5030323;28;20592;-69
2022/01/04 12:10:33;;;;;;;14.07;6.40;;;9.00;99.90;;;;;;5036593;28;21058;-69
2022/01/04 12:13:02;;;;;;;8.70;5.90;;;9.00;99.90;;;;;;5042621;28;20530;-71
2022/01/04 12:16:08;;;;;;;10.37;6.77;;;9.10;99.90;;;;;;5018964;28;20440;-72
2022/01/04 12:19:06;;;;;;;9.83;6.80;;;9.10;99.90;;;;;;4987340;28;20554;-70
2022/01/04 12:21:42;;;;;;;8.40;3.97;;;9.10;99.90;;;;;;5023205;28;20437;-72
2022/01/04 12:24:15;;;;;;;10.63;5.57;;;9.10;99.90;;;;;;5033460;28;20459;-70
2022/01/04 12:26:46;;;;;;;14.87;7.07;;;9.00;99.90;;;;;;5022865;28;21698;-71
2022/01/04 12:29:34;;;;;;;5.27;4.73;;;9.00;99.90;;;;;;5049889;28;21043;-71
2022/01/04 12:32:08;;;;;;;10.73;5.87;;;8.90;99.90;;;;;;5045864;28;20494;-74
2022/01/04 12:35:06;;;;;;;10.17;6.10;;;8.90;99.90;;;;;;5043747;28;20435;-72
2022/01/04 12:37:37;;;;;;;13.97;7.20;;;8.80;99.90;;;;;;5056389;28;20453;-70
2022/01/04 12:40:05;;;;;;;9.97;7.30;;;8.90;99.90;;;;;;5056656;28;20437;-71
2022/01/04 12:42:34;;;;;;;9.37;5.67;;;8.90;99.90;;;;;;5045182;28;20461;-71
2022/01/04 12:45:01;;;;;;;11.30;6.90;;;8.90;99.90;;;;;;5043672;28;20471;-69
2022/01/04 12:47:29;;;;;;;13.07;7.70;;;8.90;99.90;;;;;;5023650;28;20461;-70
2022/01/04 12:50:05;;;;;;;9.70;5.27;;;9.00;99.90;;;;;;5023842;28;21819;-70
2022/01/04 12:52:32;;;;;;;9.73;6.60;;;9.00;99.90;;;;;;5029083;28;20436;-73
2022/01/04 12:54:59;;;;;;;16.97;7.00;;;9.00;99.90;;;;;;5035447;28;20737;-70
2022/01/04 12:57:26;;;;;;;17.30;9.50;;;9.10;99.90;;;;;;5039962;28;20538;-72
2022/01/04 12:59:57;;;;;;;9.33;6.60;;;9.10;99.90;;;;;;5047094;28;20465;-70
2022/01/04 13:02:26;;;;;;;24.23;8.60;;;9.00;99.90;;;;;;5043647;28;20429;-74
2022/01/04 13:04:56;;;;;;;11.03;9.93;;;9.00;99.90;;;;;;5046883;28;20437;-71
2022/01/04 13:07:27;;;;;;;11.40;6.73;;;9.10;99.90;;;;;;5028228;28;20482;-69
2022/01/04 13:10:09;;;;;;;14.60;8.53;;;9.20;99.90;;;;;;5004630;28;20469;-71